createdAt,value
2023-04-12T00:01:36.373Z,2.00
2023-04-12T00:04:10.271Z,1.60
2023-04-12T00:06:48.509Z,2.30
2023-04-12T00:09:21.121Z,1.77
2023-04-12T00:11:54.510Z,2.60
2023-04-12T00:14:29.628Z,1.63
2023-04-12T00:17:01.957Z,2.58
2023-04-12T00:19:35.453Z,2.55
2023-04-12T00:22:11.887Z,2.05
2023-04-12T00:24:44.330Z,2.80
2023-04-12T00:27:16.818Z,2.67
2023-04-12T00:29:50.595Z,1.60
2023-04-12T00:32:27.715Z,2.25
2023-04-12T00:35:01.109Z,3.03
2023-04-12T00:37:33.888Z,1.48
2023-04-12T00:42:43.520Z,3.97
2023-04-12T00:45:16.745Z,1.83
2023-04-12T00:47:50.233Z,2.60
2023-04-12T00:50:24.204Z,2.35
2023-04-12T00:52:58.741Z,1.92
2023-04-12T00:55:31.715Z,4.05
2023-04-12T00:58:05.243Z,2.50
2023-04-12T01:00:38.061Z,3.20
2023-04-12T01:03:23.511Z,3.55
2023-04-12T01:06:06.552Z,3.83
2023-04-12T01:08:42.020Z,3.55
2023-04-12T01:11:27.009Z,3.38
2023-04-12T01:14:06.180Z,1.88
2023-04-12T01:16:47.899Z,2.13
2023-04-12T01:19:46.196Z,3.88
2023-04-12T01:22:37.537Z,3.85
2023-04-12T01:25:32.645Z,3.00
2023-04-12T01:28:14.834Z,1.88
2023-04-12T01:30:52.330Z,4.50
2023-04-12T01:33:31.765Z,3.13
2023-04-12T01:36:20.965Z,2.30
2023-04-12T01:38:54.828Z,2.88
2023-04-12T01:41:27.460Z,6.00
2023-04-12T01:44:02.152Z,3.33
2023-04-12T01:46:37.518Z,3.75
2023-04-12T01:49:13.058Z,3.55
2023-04-12T01:52:25.998Z,3.00
2023-04-12T01:55:02.389Z,2.15
2023-04-12T01:57:39.744Z,2.72
2023-04-12T02:00:13.943Z,4.03
2023-04-12T02:02:48.657Z,3.58
2023-04-12T02:05:24.811Z,5.07
2023-04-12T02:07:58.746Z,4.45
2023-04-12T02:10:32.365Z,3.40
2023-04-12T02:13:04.746Z,2.40
2023-04-12T02:15:37.599Z,4.20
2023-04-12T02:20:45.178Z,3.03
2023-04-12T02:23:17.563Z,3.45
2023-04-12T02:25:52.230Z,3.88
2023-04-12T02:28:26.841Z,4.45
2023-04-12T02:31:00.538Z,2.28
2023-04-12T02:33:34.907Z,3.63
2023-04-12T02:36:11.674Z,3.67
2023-04-12T02:38:45.956Z,2.58
2023-04-12T02:41:22.709Z,4.57
2023-04-12T02:43:55.788Z,4.45
2023-04-12T02:46:29.734Z,4.15
2023-04-12T02:49:04.454Z,3.90
2023-04-12T02:51:41.806Z,4.10
2023-04-12T02:54:15.477Z,3.88
2023-04-12T02:57:00.630Z,3.33
2023-04-12T03:00:00.493Z,3.75
2023-04-12T03:02:51.648Z,5.35
2023-04-12T03:05:31.398Z,3.17
2023-04-12T03:08:05.144Z,3.58
2023-04-12T03:10:44.530Z,3.90
2023-04-12T03:13:16.920Z,4.20
2023-04-12T03:15:57.550Z,3.95
2023-04-12T03:18:37.170Z,4.57
2023-04-12T03:21:10.073Z,4.25
2023-04-12T03:23:42.808Z,4.28
2023-04-12T03:26:22.264Z,3.33
2023-04-12T03:29:10.721Z,4.25
2023-04-12T03:31:46.688Z,2.72
2023-04-12T03:34:19.339Z,4.22
2023-04-12T03:36:58.583Z,4.30
2023-04-12T03:39:48.398Z,4.72
2023-04-12T03:42:33.230Z,5.93
2023-04-12T03:45:15.197Z,4.20
2023-04-12T03:47:52.269Z,5.28
2023-04-12T03:50:29.611Z,4.13
2023-04-12T03:53:03.219Z,3.42
2023-04-12T03:55:43.388Z,4.63
2023-04-12T03:58:19.005Z,4.38
2023-04-12T04:00:54.769Z,5.93
2023-04-12T04:03:29.861Z,5.97
2023-04-12T04:08:45.188Z,6.43
2023-04-12T04:11:18.828Z,6.00
2023-04-12T04:13:58.360Z,4.30
2023-04-12T04:16:31.333Z,5.13
2023-04-12T04:19:07.642Z,3.75
2023-04-12T04:21:40.613Z,4.20
2023-04-12T04:24:14.296Z,4.68
2023-04-12T04:26:54.422Z,4.28
2023-04-12T04:29:31.741Z,6.72
2023-04-12T04:32:07.629Z,4.43
2023-04-12T04:34:41.747Z,5.68
2023-04-12T04:37:21.300Z,5.97
2023-04-12T04:39:56.525Z,4.28
2023-04-12T04:42:32.997Z,4.35
2023-04-12T04:45:14.145Z,6.03
2023-04-12T04:47:49.540Z,5.13
2023-04-12T04:50:23.418Z,6.23
2023-04-12T04:52:58.852Z,3.42
2023-04-12T04:55:33.188Z,5.13
2023-04-12T04:58:06.507Z,5.63
2023-04-12T05:00:39.389Z,4.80
2023-04-12T05:03:12.340Z,4.20
2023-04-12T05:05:48.230Z,7.95
2023-04-12T05:08:20.757Z,4.65
2023-04-12T05:10:56.343Z,4.60
2023-04-12T05:13:32.567Z,3.40
2023-04-12T05:16:09.402Z,5.43
2023-04-12T05:18:42.036Z,4.45
2023-04-12T05:21:14.546Z,6.13
2023-04-12T05:23:48.876Z,2.38
2023-04-12T05:26:21.679Z,3.33
2023-04-12T05:28:57.338Z,4.20
2023-04-12T05:31:34.104Z,6.18
2023-04-12T05:34:12.249Z,4.68
2023-04-12T05:36:52.023Z,5.05
2023-04-12T05:42:01.861Z,5.82
2023-04-12T05:44:36.952Z,5.15
2023-04-12T05:47:13.109Z,5.68
2023-04-12T05:49:46.982Z,4.80
2023-04-12T05:52:19.463Z,8.23
2023-04-12T05:54:52.878Z,5.43
2023-04-12T05:57:27.209Z,4.80
2023-04-12T05:59:59.802Z,6.57
2023-04-12T06:02:32.483Z,4.68
2023-04-12T06:05:05.887Z,4.50
2023-04-12T06:07:46.956Z,3.45
2023-04-12T06:10:19.898Z,5.80
2023-04-12T06:12:55.689Z,3.78
2023-04-12T06:15:28.232Z,5.22
2023-04-12T06:18:00.752Z,5.13
2023-04-12T06:20:33.292Z,4.00
2023-04-12T06:23:06.653Z,3.75
2023-04-12T06:25:40.766Z,3.78
2023-04-12T06:28:14.411Z,4.75
2023-04-12T06:30:50.188Z,5.25
2023-04-12T06:33:23.101Z,4.97
2023-04-12T06:35:56.578Z,3.78
2023-04-12T06:38:31.612Z,4.72
2023-04-12T06:41:04.104Z,5.03
2023-04-12T06:43:37.076Z,3.88
2023-04-12T06:46:09.448Z,6.03
2023-04-12T06:48:41.853Z,4.88
2023-04-12T06:51:17.548Z,4.47
2023-04-12T06:53:50.053Z,6.40
2023-04-12T06:56:24.167Z,4.88
2023-04-12T06:58:59.201Z,5.40
2023-04-12T07:01:33.473Z,3.03
2023-04-12T07:04:10.376Z,6.07
2023-04-12T07:06:42.787Z,5.82
2023-04-12T07:09:16.650Z,3.67
2023-04-12T07:11:49.065Z,4.85
2023-04-12T07:14:21.404Z,5.00
2023-04-12T07:16:57.648Z,3.72
2023-04-12T07:19:55.574Z,4.95
2023-04-12T07:40:25.524Z,4.70
2023-04-12T07:42:58.106Z,5.07
2023-04-12T07:45:30.827Z,3.87
2023-04-12T07:48:03.784Z,4.10
2023-04-12T07:50:37.209Z,5.88
2023-04-12T07:53:36.782Z,3.05
2023-04-12T07:56:09.505Z,5.05
2023-04-12T07:58:41.792Z,5.60
2023-04-12T08:01:15.500Z,4.95
2023-04-12T08:03:48.078Z,4.25
2023-04-12T08:06:21.958Z,4.20
2023-04-12T08:08:54.346Z,3.28
2023-04-12T08:11:27.889Z,4.37
2023-04-12T08:14:00.743Z,5.85
2023-04-12T08:16:33.552Z,3.17
2023-04-12T08:19:07.465Z,3.97
2023-04-12T08:21:39.987Z,6.63
2023-04-12T08:24:13.173Z,4.65
2023-04-12T08:26:49.872Z,4.90
2023-04-12T08:29:22.390Z,5.00
2023-04-12T08:31:56.365Z,5.97
2023-04-12T08:34:28.764Z,3.45
2023-04-12T08:37:01.311Z,3.77
2023-04-12T08:39:38.862Z,2.15
2023-04-12T08:42:11.411Z,6.85
2023-04-12T08:44:44.298Z,3.83
2023-04-12T08:47:17.377Z,3.67
2023-04-12T08:49:50.012Z,3.72
2023-04-12T08:52:27.346Z,5.70
2023-04-12T08:55:03.281Z,2.75
2023-04-12T08:57:37.049Z,6.55
2023-04-12T09:00:13.145Z,4.13
2023-04-12T09:02:47.299Z,5.18
2023-04-12T09:05:20.073Z,5.05
2023-04-12T09:07:52.685Z,10.05
2023-04-12T09:10:32.683Z,2.58
2023-04-12T09:13:07.328Z,5.40
2023-04-12T09:15:49.717Z,4.93
2023-04-12T09:18:23.238Z,5.05
2023-04-12T09:21:09.402Z,4.80
2023-04-12T09:23:41.857Z,7.00
2023-04-12T09:26:29.043Z,4.50
2023-04-12T09:29:06.884Z,6.80
2023-04-12T09:31:39.382Z,3.13
2023-04-12T09:34:11.804Z,3.93
2023-04-12T09:36:44.682Z,4.45
2023-04-12T09:39:19.950Z,4.07
2023-04-12T09:42:29.180Z,5.50
2023-04-12T09:45:21.846Z,3.85
2023-04-12T09:47:57.499Z,5.25
2023-04-12T09:50:33.503Z,7.93
2023-04-12T09:53:17.341Z,7.50
2023-04-12T09:55:51.527Z,7.63
2023-04-12T09:58:25.827Z,8.10
2023-04-12T10:01:02.129Z,13.00
2023-04-12T10:03:36.164Z,4.65
2023-04-12T10:06:09.346Z,10.02
2023-04-12T10:08:42.315Z,8.52
2023-04-12T10:11:14.911Z,3.65
2023-04-12T10:13:49.636Z,5.80
2023-04-12T10:16:23.007Z,11.50
2023-04-12T10:18:56.903Z,7.43
2023-04-12T10:25:40.079Z,5.90
2023-04-12T10:31:55.586Z,5.03
2023-04-12T10:34:32.464Z,8.10
2023-04-12T10:37:07.337Z,6.18
2023-04-12T10:39:42.496Z,10.98
2023-04-12T10:42:25.344Z,11.80
2023-04-12T11:18:03.513Z,9.38
2023-04-12T12:52:47.943Z,9.55
2023-04-12T18:35:09.805Z,2.20
2023-04-12T18:37:45.837Z,0.88
2023-04-12T18:40:20.402Z,2.20
2023-04-12T19:10:51.520Z,1.70
2023-04-12T19:28:20.166Z,2.17
2023-04-12T19:35:57.673Z,1.67
2023-04-12T19:50:57.389Z,2.70
2023-04-12T19:53:30.575Z,2.40
2023-04-12T19:56:06.363Z,2.30
2023-04-12T19:58:45.329Z,1.33
2023-04-12T20:01:17.792Z,1.63
2023-04-12T20:03:50.360Z,2.33
2023-04-12T20:06:23.860Z,1.45
2023-04-12T20:11:32.033Z,1.58
2023-04-12T20:14:09.572Z,2.70
2023-04-12T20:16:42.822Z,1.75
2023-04-12T20:19:17.867Z,1.88
2023-04-12T20:22:04.974Z,0.70
2023-04-12T20:37:18.235Z,2.03
2023-04-12T20:39:54.271Z,1.88
2023-04-12T20:42:27.874Z,1.67
2023-04-12T20:45:01.177Z,1.52
2023-04-12T20:47:36.623Z,2.22
2023-04-12T22:01:20.631Z,2.20
2023-04-12T22:06:48.456Z,1.63
2023-04-12T22:09:20.796Z,1.02
2023-04-12T22:19:42.542Z,1.10
2023-04-12T22:22:19.470Z,2.55
2023-04-12T22:24:54.393Z,1.80
2023-04-12T22:27:26.850Z,1.75
2023-04-12T22:30:05.371Z,2.10
2023-04-12T22:33:06.044Z,0.77
2023-04-12T23:00:53.467Z,0.88
2023-04-12T23:03:34.267Z,0.47
2023-04-12T23:06:12.947Z,0.90
2023-04-12T23:08:47.573Z,1.02
2023-04-12T23:11:23.039Z,1.35
2023-04-12T23:13:58.959Z,0.67
2023-04-12T23:16:36.776Z,1.20
2023-04-12T23:19:09.190Z,1.15
2023-04-12T23:21:45.206Z,0.90
2023-04-12T23:24:18.559Z,0.93
2023-04-12T23:29:35.048Z,0.63
2023-04-12T23:32:07.597Z,0.70
2023-04-12T23:34:40.372Z,0.60
2023-04-12T23:37:15.089Z,0.93
2023-04-12T23:39:47.515Z,1.02
2023-04-12T23:42:23.856Z,1.42
